Time;durP1;ratioP1;P1;durP2;ratioP2;P2;SDS_P1;SDS_P2;PMS_P1;PMS_P2;Temp;Humidity;BMP_temperature;BMP_pressure;BME280_temperature;BME280_humidity;BME280_pressure;Samples;Min_cycle;Max_cycle;Signal;HPM_P1;HPM_P2
2021/08/25 00:00:08;;;;;;;2.70;1.90;;;;;;;;;;6254000;28;20056;-74
2021/08/25 00:03:09;;;;;;;4.45;2.03;;;;;;;;;;6245404;28;20052;-74
2021/08/25 00:06:11;;;;;;;4.75;1.70;;;;;;;;;;6249769;28;20048;-73
2021/08/25 00:09:14;;;;;;;3.30;2.35;;;;;;;;;;6253687;28;20049;-73
2021/08/25 00:12:15;;;;;;;4.07;2.00;;;;;;;;;;6254220;28;20160;-74
2021/08/25 00:15:17;;;;;;;6.03;2.10;;;;;;;;;;6254006;28;20042;-73
2021/08/25 00:18:19;;;;;;;3.83;2.25;;;;;;;;;;6255579;28;20095;-74
2021/08/25 00:21:20;;;;;;;3.38;1.83;;;;;;;;;;6245266;28;20127;-73
2021/08/25 00:24:23;;;;;;;6.80;2.55;;;;;;;;;;6270599;28;20183;-73
2021/08/25 00:27:25;;;;;;;3.03;2.38;;;;;;;;;;6255873;28;20142;-73
2021/08/25 00:30:26;;;;;;;3.22;1.90;;;;;;;;;;6256650;28;20062;-74
2021/08/25 00:33:28;;;;;;;4.97;1.75;;;;;;;;;;6250913;28;20378;-73
2021/08/25 00:36:29;;;;;;;2.92;1.90;;;;;;;;;;6255488;28;20053;-73
2021/08/25 00:39:32;;;;;;;5.53;1.65;;;;;;;;;;6268239;28;20088;-73
2021/08/25 00:42:34;;;;;;;3.13;1.60;;;;;;;;;;6252060;28;20078;-73
2021/08/25 00:45:37;;;;;;;3.22;1.90;;;;;;;;;;6243034;28;20427;-73
2021/08/25 00:48:39;;;;;;;4.72;1.85;;;;;;;;;;6248081;28;20273;-73
2021/08/25 00:51:43;;;;;;;4.95;1.70;;;;;;;;;;6247343;28;20064;-74
2021/08/25 00:54:46;;;;;;;4.35;2.00;;;;;;;;;;6249696;28;20049;-73
2021/08/25 00:57:48;;;;;;;3.30;1.67;;;;;;;;;;6244780;28;20140;-73
2021/08/25 01:00:55;;;;;;;2.30;1.48;;;;;;;;;;6240560;28;20086;-73
2021/08/25 01:04:00;;;;;;;4.25;2.15;;;;;;;;;;6240713;28;20176;-73
2021/08/25 01:07:02;;;;;;;4.38;1.85;;;;;;;;;;6246271;28;20059;-74
2021/08/25 01:10:24;;;;;;;5.07;2.10;;;;;;;;;;6249249;28;20094;-74
2021/08/25 01:13:26;;;;;;;3.78;1.70;;;;;;;;;;6249315;28;20092;-73
2021/08/25 01:16:27;;;;;;;3.80;1.90;;;;;;;;;;6237463;28;20180;-73
2021/08/25 01:19:30;;;;;;;4.03;1.88;;;;;;;;;;6246805;28;20037;-73
2021/08/25 01:22:32;;;;;;;3.17;1.75;;;;;;;;;;6247062;28;20049;-73
2021/08/25 01:25:36;;;;;;;3.00;1.60;;;;;;;;;;6265005;28;20094;-74
2021/08/25 01:28:42;;;;;;;4.15;1.50;;;;;;;;;;6266099;28;20045;-73
2021/08/25 01:31:45;;;;;;;3.50;1.85;;;;;;;;;;6253697;28;20382;-73
2021/08/25 01:34:51;;;;;;;3.53;2.30;;;;;;;;;;6255146;28;20053;-73
2021/08/25 01:37:53;;;;;;;2.50;1.67;;;;;;;;;;6238292;28;20130;-73
2021/08/25 01:40:54;;;;;;;3.28;2.08;;;;;;;;;;6244187;28;20041;-73
2021/08/25 01:43:56;;;;;;;2.05;1.60;;;;;;;;;;6252292;28;20098;-75
2021/08/25 01:46:59;;;;;;;3.35;2.10;;;;;;;;;;6238950;28;20098;-74
2021/08/25 01:50:01;;;;;;;2.70;1.85;;;;;;;;;;6243345;28;20567;-73
2021/08/25 01:53:02;;;;;;;3.40;1.92;;;;;;;;;;6242782;28;20109;-73
2021/08/25 01:56:04;;;;;;;3.95;2.30;;;;;;;;;;6242196;28;20199;-74
2021/08/25 01:59:06;;;;;;;2.78;1.70;;;;;;;;;;6252897;28;20064;-73
2021/08/25 02:02:09;;;;;;;4.38;2.10;;;;;;;;;;6234768;28;20125;-73
2021/08/25 02:05:10;;;;;;;2.50;1.67;;;;;;;;;;6245558;28;20041;-73
2021/08/25 02:08:12;;;;;;;2.30;1.90;;;;;;;;;;6247759;28;20049;-73
2021/08/25 02:11:14;;;;;;;3.88;1.85;;;;;;;;;;6240877;28;20048;-73
2021/08/25 02:14:16;;;;;;;3.03;2.08;;;;;;;;;;6249804;28;20742;-73
2021/08/25 02:17:19;;;;;;;3.08;1.83;;;;;;;;;;6239960;28;20041;-75
2021/08/25 02:20:20;;;;;;;2.42;1.60;;;;;;;;;;6244720;28;20045;-74
2021/08/25 02:23:22;;;;;;;1.98;1.63;;;;;;;;;;6248106;28;20444;-73
2021/08/25 02:26:24;;;;;;;3.83;1.88;;;;;;;;;;6244512;28;20098;-73
2021/08/25 02:29:25;;;;;;;4.80;2.00;;;;;;;;;;6247016;28;20041;-73
2021/08/25 02:32:28;;;;;;;3.58;2.38;;;;;;;;;;6239699;28;20060;-73
2021/08/25 02:35:30;;;;;;;3.05;2.00;;;;;;;;;;6239381;28;20038;-74
2021/08/25 02:38:31;;;;;;;3.53;1.90;;;;;;;;;;6251390;28;20190;-73
2021/08/25 02:41:33;;;;;;;3.30;1.58;;;;;;;;;;6245143;28;20098;-73
2021/08/25 02:44:35;;;;;;;5.53;1.85;;;;;;;;;;6247411;28;20084;-73
2021/08/25 02:47:38;;;;;;;2.55;1.85;;;;;;;;;;6236288;28;20052;-73
2021/08/25 02:50:39;;;;;;;3.08;1.80;;;;;;;;;;6245514;28;20049;-73
2021/08/25 02:53:41;;;;;;;3.85;1.70;;;;;;;;;;6251457;28;20072;-74
2021/08/25 02:56:43;;;;;;;3.90;1.75;;;;;;;;;;6240415;28;20172;-73
2021/08/25 02:59:44;;;;;;;2.60;2.00;;;;;;;;;;6253965;28;20132;-73
2021/08/25 03:02:47;;;;;;;4.85;1.60;;;;;;;;;;6233780;28;20045;-73
2021/08/25 03:05:49;;;;;;;3.85;1.98;;;;;;;;;;6238927;28;20541;-73
2021/08/25 03:08:50;;;;;;;2.25;1.65;;;;;;;;;;6247071;28;20136;-73
2021/08/25 03:11:52;;;;;;;3.78;1.65;;;;;;;;;;6242241;28;20473;-74
2021/08/25 03:14:54;;;;;;;4.22;1.75;;;;;;;;;;6256471;28;20409;-74
2021/08/25 03:17:57;;;;;;;4.68;1.80;;;;;;;;;;6239722;28;20083;-73
2021/08/25 03:20:58;;;;;;;2.55;1.50;;;;;;;;;;6240519;28;20124;-73
2021/08/25 03:24:00;;;;;;;2.83;1.60;;;;;;;;;;6252160;28;20045;-73
2021/08/25 03:27:02;;;;;;;4.55;1.80;;;;;;;;;;6247405;28;20136;-73
2021/08/25 03:30:04;;;;;;;2.97;1.73;;;;;;;;;;6252118;28;20152;-73
2021/08/25 03:33:07;;;;;;;2.95;2.22;;;;;;;;;;6237997;28;20094;-73
2021/08/25 03:36:09;;;;;;;4.88;1.85;;;;;;;;;;6241152;28;20049;-73
2021/08/25 03:39:10;;;;;;;2.67;1.88;;;;;;;;;;6256705;28;20155;-73
2021/08/25 03:42:13;;;;;;;3.63;1.58;;;;;;;;;;6247376;28;20106;-73
2021/08/25 03:45:14;;;;;;;3.05;1.90;;;;;;;;;;6253591;28;20045;-73
2021/08/25 03:48:17;;;;;;;4.15;1.40;;;;;;;;;;6244600;28;20195;-75
2021/08/25 03:51:19;;;;;;;4.53;1.85;;;;;;;;;;6245389;28;20519;-74
2021/08/25 03:54:20;;;;;;;3.47;1.50;;;;;;;;;;6248992;28;20634;-74
2021/08/25 03:57:22;;;;;;;2.00;1.60;;;;;;;;;;6246797;28;20132;-73
2021/08/25 04:00:23;;;;;;;2.85;1.75;;;;;;;;;;6246418;28;20048;-73
2021/08/25 04:03:26;;;;;;;2.47;1.40;;;;;;;;;;6245173;28;20045;-73
2021/08/25 04:06:28;;;;;;;2.22;1.38;;;;;;;;;;6245215;28;20132;-74
2021/08/25 04:09:29;;;;;;;3.33;1.65;;;;;;;;;;6254770;28;20127;-74
2021/08/25 04:12:31;;;;;;;4.32;1.33;;;;;;;;;;6242763;28;20219;-73
2021/08/25 04:15:33;;;;;;;1.40;1.10;;;;;;;;;;6246410;28;20451;-75
2021/08/25 04:18:36;;;;;;;1.80;1.30;;;;;;;;;;6248038;28;20057;-73
2021/08/25 04:21:37;;;;;;;3.85;1.30;;;;;;;;;;6244710;28;20451;-74
2021/08/25 04:24:39;;;;;;;2.35;1.38;;;;;;;;;;6247693;28;20108;-75
2021/08/25 04:27:40;;;;;;;4.50;1.73;;;;;;;;;;6250742;28;20266;-73
2021/08/25 04:30:42;;;;;;;2.22;1.38;;;;;;;;;;6250165;28;20055;-75
2021/08/25 04:33:45;;;;;;;2.38;1.48;;;;;;;;;;6247809;28;20401;-73
2021/08/25 04:36:47;;;;;;;1.92;1.27;;;;;;;;;;6244281;28;20045;-73
2021/08/25 04:39:48;;;;;;;3.15;1.35;;;;;;;;;;6250983;28;20049;-74
2021/08/25 04:42:50;;;;;;;2.92;1.10;;;;;;;;;;6245999;28;20040;-73
2021/08/25 04:45:52;;;;;;;2.42;1.10;;;;;;;;;;6240312;28;20083;-73
2021/08/25 04:48:54;;;;;;;1.55;1.20;;;;;;;;;;6248943;28;20069;-73
2021/08/25 04:51:56;;;;;;;1.95;1.00;;;;;;;;;;6247180;28;20187;-73
2021/08/25 04:54:58;;;;;;;3.08;1.45;;;;;;;;;;6254250;28;20094;-73
2021/08/25 04:57:59;;;;;;;3.08;1.55;;;;;;;;;;6247255;28;20100;-73
2021/08/25 05:01:01;;;;;;;3.10;1.25;;;;;;;;;;6242578;28;20442;-74
2021/08/25 05:04:04;;;;;;;2.97;1.30;;;;;;;;;;6249851;28;20144;-73
2021/08/25 05:07:06;;;;;;;2.42;1.35;;;;;;;;;;6242185;28;20045;-74
2021/08/25 05:10:08;;;;;;;4.10;1.15;;;;;;;;;;6251964;28;20159;-75
2021/08/25 05:13:09;;;;;;;2.65;1.10;;;;;;;;;;6246692;28;20673;-74
2021/08/25 05:16:12;;;;;;;4.63;1.17;;;;;;;;;;6239937;28;20101;-73
2021/08/25 05:19:15;;;;;;;1.67;1.20;;;;;;;;;;6247516;28;20045;-74
2021/08/25 05:22:16;;;;;;;1.83;1.40;;;;;;;;;;6246963;28;20075;-73
2021/08/25 05:25:18;;;;;;;1.92;1.00;;;;;;;;;;6254295;28;20110;-71
2021/08/25 05:28:20;;;;;;;1.70;1.02;;;;;;;;;;6253952;28;20146;-70
2021/08/25 05:31:21;;;;;;;3.95;1.15;;;;;;;;;;6250185;28;20179;-69
2021/08/25 05:34:24;;;;;;;1.48;0.98;;;;;;;;;;6249187;28;20123;-71
2021/08/25 05:37:26;;;;;;;2.90;1.10;;;;;;;;;;6240604;28;20094;-71
2021/08/25 05:40:27;;;;;;;1.70;0.90;;;;;;;;;;6249878;28;20041;-71
2021/08/25 05:43:29;;;;;;;5.35;1.55;;;;;;;;;;6260881;28;20066;-71
2021/08/25 05:46:31;;;;;;;2.30;1.20;;;;;;;;;;6236757;28;20049;-70
2021/08/25 05:49:34;;;;;;;2.05;1.05;;;;;;;;;;6246889;28;20584;-70
2021/08/25 05:52:36;;;;;;;3.75;1.00;;;;;;;;;;6240704;28;20048;-70
2021/08/25 05:55:38;;;;;;;3.15;1.58;;;;;;;;;;6238903;28;20280;-70
2021/08/25 05:58:42;;;;;;;4.45;1.30;;;;;;;;;;6252391;28;20040;-70
2021/08/25 06:01:43;;;;;;;3.65;1.23;;;;;;;;;;6233815;28;20056;-70
2021/08/25 06:04:46;;;;;;;3.38;1.52;;;;;;;;;;6243254;28;20056;-70
2021/08/25 06:07:48;;;;;;;4.03;1.00;;;;;;;;;;6238043;28;20106;-70
2021/08/25 06:10:49;;;;;;;2.30;1.30;;;;;;;;;;6240436;28;20103;-70
2021/08/25 06:13:51;;;;;;;3.03;1.10;;;;;;;;;;6253207;28;20049;-70
2021/08/25 06:16:52;;;;;;;1.98;1.35;;;;;;;;;;6234187;28;20139;-70
2021/08/25 06:19:55;;;;;;;4.40;1.33;;;;;;;;;;6251764;28;20507;-70
2021/08/25 06:22:57;;;;;;;4.03;1.08;;;;;;;;;;6239497;28;20132;-71
2021/08/25 06:25:58;;;;;;;1.80;1.00;;;;;;;;;;6250092;28;20091;-70
2021/08/25 06:29:00;;;;;;;2.00;1.20;;;;;;;;;;6243884;28;20156;-71
2021/08/25 06:32:01;;;;;;;2.67;1.05;;;;;;;;;;6236176;28;20071;-71
2021/08/25 06:35:05;;;;;;;2.05;1.20;;;;;;;;;;6244803;28;20063;-68
2021/08/25 06:38:07;;;;;;;4.47;1.70;;;;;;;;;;6243729;28;20178;-67
2021/08/25 06:41:09;;;;;;;4.05;1.40;;;;;;;;;;6240803;28;20473;-68
2021/08/25 06:44:10;;;;;;;1.90;1.38;;;;;;;;;;6250996;28;20045;-70
2021/08/25 06:47:12;;;;;;;6.38;1.40;;;;;;;;;;6236611;28;20128;-70
2021/08/25 06:50:15;;;;;;;2.42;1.30;;;;;;;;;;6247573;28;20072;-71
2021/08/25 06:53:16;;;;;;;3.45;1.48;;;;;;;;;;6252608;28;20044;-71
2021/08/25 06:56:18;;;;;;;2.28;1.27;;;;;;;;;;6246894;28;20186;-70
2021/08/25 06:59:19;;;;;;;3.58;1.40;;;;;;;;;;6255772;28;20045;-70
2021/08/25 07:02:21;;;;;;;2.97;1.40;;;;;;;;;;6237837;28;20045;-71
2021/08/25 07:05:24;;;;;;;1.70;1.10;;;;;;;;;;6248271;28;20045;-71
2021/08/25 07:08:26;;;;;;;2.67;1.00;;;;;;;;;;6258319;28;20169;-70
2021/08/25 07:11:27;;;;;;;6.70;1.42;;;;;;;;;;6249987;28;20053;-70
2021/08/25 07:14:29;;;;;;;1.80;0.90;;;;;;;;;;6259423;28;20056;-71
2021/08/25 07:17:30;;;;;;;2.85;1.05;;;;;;;;;;6230049;28;20040;-70
2021/08/25 07:20:52;;;;;;;1.15;0.90;;;;;;;;;;6245750;28;20477;-71
2021/08/25 07:23:53;;;;;;;1.92;0.75;;;;;;;;;;6252011;28;20416;-71
2021/08/25 07:26:55;;;;;;;1.55;0.88;;;;;;;;;;6248314;28;20106;-71
2021/08/25 07:29:56;;;;;;;2.42;1.00;;;;;;;;;;6255017;28;20077;-70
2021/08/25 07:32:58;;;;;;;3.60;0.90;;;;;;;;;;6243870;28;20424;-70
2021/08/25 07:36:01;;;;;;;3.58;1.20;;;;;;;;;;6245333;28;20045;-71
2021/08/25 07:39:03;;;;;;;1.63;1.08;;;;;;;;;;6255961;28;20470;-70
2021/08/25 07:42:04;;;;;;;1.98;0.88;;;;;;;;;;6250232;28;20103;-71
2021/08/25 07:45:07;;;;;;;2.03;0.80;;;;;;;;;;6252656;28;20102;-71
2021/08/25 07:48:08;;;;;;;3.30;0.88;;;;;;;;;;6241351;28;20094;-71
2021/08/25 07:51:11;;;;;;;2.70;1.10;;;;;;;;;;6245579;28;20052;-71
2021/08/25 07:54:13;;;;;;;2.67;1.23;;;;;;;;;;6255496;28;20037;-70
2021/08/25 07:57:14;;;;;;;3.63;1.35;;;;;;;;;;6245597;28;20076;-71
2021/08/25 08:00:16;;;;;;;6.32;1.00;;;;;;;;;;6250360;28;20417;-71
2021/08/25 08:03:18;;;;;;;2.67;0.80;;;;;;;;;;6247581;28;20042;-70
2021/08/25 08:06:21;;;;;;;1.95;1.20;;;;;;;;;;6248568;28;20394;-70
2021/08/25 08:09:23;;;;;;;2.03;1.13;;;;;;;;;;6254465;28;20084;-71
2021/08/25 08:12:24;;;;;;;2.85;1.15;;;;;;;;;;6251329;28;20826;-71
2021/08/25 08:15:29;;;;;;;2.45;1.08;;;;;;;;;;6247056;28;20079;-71
2021/08/25 08:18:33;;;;;;;1.42;0.90;;;;;;;;;;6246737;28;20570;-71
2021/08/25 08:21:36;;;;;;;2.35;1.10;;;;;;;;;;6246311;28;20053;-71
2021/08/25 08:24:38;;;;;;;1.00;0.90;;;;;;;;;;6258898;28;20094;-70
2021/08/25 08:27:39;;;;;;;3.15;1.10;;;;;;;;;;6244103;28;20051;-70
2021/08/25 08:30:41;;;;;;;4.15;1.30;;;;;;;;;;6244483;28;20819;-71
2021/08/25 08:33:42;;;;;;;1.77;1.20;;;;;;;;;;6251711;28;20497;-71
2021/08/25 08:36:45;;;;;;;5.30;1.15;;;;;;;;;;6246148;28;20056;-71
2021/08/25 08:39:47;;;;;;;2.70;1.00;;;;;;;;;;6260145;28;20339;-71
2021/08/25 08:42:48;;;;;;;2.33;0.80;;;;;;;;;;6258314;28;20166;-71
2021/08/25 08:45:50;;;;;;;1.45;0.90;;;;;;;;;;6248969;28;20048;-71
2021/08/25 08:48:53;;;;;;;2.00;1.00;;;;;;;;;;6255409;28;20056;-71
2021/08/25 08:51:57;;;;;;;1.75;0.70;;;;;;;;;;6244836;28;20049;-68
2021/08/25 08:54:59;;;;;;;1.50;0.80;;;;;;;;;;6255990;28;20074;-68
2021/08/25 08:58:00;;;;;;;1.77;0.98;;;;;;;;;;6246516;28;20183;-68
2021/08/25 09:01:02;;;;;;;1.45;0.80;;;;;;;;;;6244761;28;20103;-69
2021/08/25 09:04:04;;;;;;;3.03;0.80;;;;;;;;;;6251589;28;20120;-68
2021/08/25 09:07:17;;;;;;;3.15;0.80;;;;;;;;;;6245504;28;20043;-69
2021/08/25 09:10:23;;;;;;;2.60;0.85;;;;;;;;;;6247743;28;20041;-69
2021/08/25 09:13:33;;;;;;;4.40;1.27;;;;;;;;;;6255054;28;20053;-69
2021/08/25 09:16:36;;;;;;;1.55;0.90;;;;;;;;;;6241888;28;20045;-69
2021/08/25 09:19:38;;;;;;;1.33;0.85;;;;;;;;;;6252862;28;20130;-68
2021/08/25 09:22:41;;;;;;;4.07;1.00;;;;;;;;;;6246638;28;20404;-69
2021/08/25 09:25:43;;;;;;;;;;;;;;;;;;6255998;28;20124;-70
2021/08/25 09:28:44;;;;;;;4.40;0.90;;;;;;;;;;6262781;28;19929;-68
2021/08/25 09:31:46;;;;;;;2.35;0.90;;;;;;;;;;6244532;28;20090;-68
2021/08/25 09:34:54;;;;;;;3.83;0.87;;;;;;;;;;6256809;28;20140;-70
2021/08/25 09:37:59;;;;;;;3.25;1.02;;;;;;;;;;6241323;28;20528;-69
2021/08/25 09:41:05;;;;;;;3.15;0.90;;;;;;;;;;6243180;28;20071;-69
2021/08/25 09:44:15;;;;;;;3.38;1.20;;;;;;;;;;6255337;28;20060;-71
2021/08/25 09:47:17;;;;;;;2.10;0.90;;;;;;;;;;6235704;28;20053;-72
2021/08/25 09:50:20;;;;;;;5.13;0.93;;;;;;;;;;6245072;28;20036;-72
2021/08/25 09:53:23;;;;;;;2.20;0.80;;;;;;;;;;6248755;28;20394;-72
2021/08/25 09:56:28;;;;;;;;;;;;;;;;;;6244693;28;20074;-71
2021/08/25 09:59:31;;;;;;;5.65;1.02;;;;;;;;;;6256554;28;20032;-71
2021/08/25 10:02:32;;;;;;;2.88;0.80;;;;;;;;;;6236445;28;20045;-72
2021/08/25 10:05:34;;;;;;;1.98;1.00;;;;;;;;;;6244742;28;20678;-73
2021/08/25 10:08:37;;;;;;;3.28;1.00;;;;;;;;;;6250856;28;20198;-72
2021/08/25 10:11:40;;;;;;;4.05;1.23;;;;;;;;;;6243960;28;20493;-72
2021/08/25 10:14:42;;;;;;;1.83;0.80;;;;;;;;;;6251279;28;20654;-72
2021/08/25 10:17:43;;;;;;;4.63;1.02;;;;;;;;;;6233363;28;20041;-72
2021/08/25 10:20:45;;;;;;;1.77;1.03;;;;;;;;;;6233886;28;20589;-72
2021/08/25 10:24:05;;;;;;;3.45;1.27;;;;;;;;;;6247733;28;20057;-72
2021/08/25 10:27:08;;;;;;;1.88;1.15;;;;;;;;;;6242213;28;21207;-73
2021/08/25 10:30:14;;;;;;;1.63;0.93;;;;;;;;;;6248393;28;20053;-72
2021/08/25 10:33:16;;;;;;;2.30;1.30;;;;;;;;;;6242502;28;20115;-71
2021/08/25 10:36:21;;;;;;;1.65;1.10;;;;;;;;;;6237930;28;20086;-72
2021/08/25 10:39:33;;;;;;;2.33;1.08;;;;;;;;;;6248826;28;20765;-73
2021/08/25 10:42:49;;;;;;;2.00;0.90;;;;;;;;;;6243148;28;20090;-72
2021/08/25 10:45:58;;;;;;;2.78;1.23;;;;;;;;;;6241179;28;20556;-73
2021/08/25 10:49:04;;;;;;;3.22;1.30;;;;;;;;;;6245011;28;20049;-73
2021/08/25 10:52:28;;;;;;;2.25;1.35;;;;;;;;;;6242093;28;20048;-73
2021/08/25 10:55:31;;;;;;;2.38;1.17;;;;;;;;;;6242706;28;20064;-73
2021/08/25 10:58:45;;;;;;;3.97;1.30;;;;;;;;;;6247837;28;20045;-72
2021/08/25 11:01:47;;;;;;;4.10;1.00;;;;;;;;;;6240978;28;20083;-75
2021/08/25 11:04:51;;;;;;;2.80;1.13;;;;;;;;;;6249241;28;20123;-77
2021/08/25 11:07:52;;;;;;;2.13;1.45;;;;;;;;;;6240483;28;20575;-75
2021/08/25 11:10:55;;;;;;;2.05;1.20;;;;;;;;;;6242928;28;20098;-76
2021/08/25 11:13:57;;;;;;;3.15;1.25;;;;;;;;;;6250347;28;20134;-75
2021/08/25 11:17:04;;;;;;;3.58;1.30;;;;;;;;;;6233712;28;20543;-75
2021/08/25 11:20:08;;;;;;;2.13;0.93;;;;;;;;;;6243291;28;20060;-74
2021/08/25 11:23:10;;;;;;;1.10;0.98;;;;;;;;;;6246370;28;20045;-75
2021/08/25 11:26:13;;;;;;;2.05;1.13;;;;;;;;;;6245098;28;20040;-75
2021/08/25 11:29:22;;;;;;;5.13;1.40;;;;;;;;;;6253824;28;20330;-74
2021/08/25 11:32:23;;;;;;;5.18;1.10;;;;;;;;;;6246581;28;20041;-75
2021/08/25 11:35:28;;;;;;;2.07;1.27;;;;;;;;;;6252585;28;20057;-75
2021/08/25 11:38:29;;;;;;;4.50;1.10;;;;;;;;;;6263519;28;20033;-75
2021/08/25 11:41:44;;;;;;;1.37;1.00;;;;;;;;;;6255161;28;20508;-75
2021/08/25 11:44:46;;;;;;;1.67;1.10;;;;;;;;;;6261073;28;20080;-74
2021/08/25 11:47:49;;;;;;;3.83;1.17;;;;;;;;;;6250339;28;20070;-75
2021/08/25 11:50:51;;;;;;;1.50;1.00;;;;;;;;;;6255705;28;20136;-74
2021/08/25 11:53:53;;;;;;;3.15;1.20;;;;;;;;;;6263003;28;20081;-75
2021/08/25 11:56:55;;;;;;;4.57;1.30;;;;;;;;;;6256973;28;20102;-76
2021/08/25 12:00:00;;;;;;;2.55;1.10;;;;;;;;;;6258485;28;20762;-75
2021/08/25 12:03:04;;;;;;;4.43;1.00;;;;;;;;;;6249583;28;20049;-75
2021/08/25 12:06:06;;;;;;;4.05;1.00;;;;;;;;;;6247630;28;20499;-75
2021/08/25 12:09:07;;;;;;;2.53;1.20;;;;;;;;;;6257834;28;20090;-75
2021/08/25 12:12:10;;;;;;;1.88;1.20;;;;;;;;;;6254578;28;20109;-75
2021/08/25 12:15:12;;;;;;;3.10;0.80;;;;;;;;;;6251066;28;20106;-75
2021/08/25 12:18:14;;;;;;;4.63;1.10;;;;;;;;;;6252372;28;20041;-75
2021/08/25 12:21:16;;;;;;;;;;;;;;;;;;6251039;28;20057;-75
2021/08/25 12:24:18;;;;;;;2.30;1.00;;;;;;;;;;6260082;28;19929;-75
2021/08/25 12:27:22;;;;;;;2.35;1.02;;;;;;;;;;6251372;28;20064;-75
2021/08/25 12:30:23;;;;;;;2.42;1.08;;;;;;;;;;6251503;28;20041;-75
2021/08/25 12:33:29;;;;;;;2.28;1.20;;;;;;;;;;6249018;28;20136;-75
2021/08/25 12:36:32;;;;;;;5.25;1.00;;;;;;;;;;6243071;28;20048;-75
2021/08/25 12:39:33;;;;;;;4.13;1.13;;;;;;;;;;6247638;28;20130;-75
2021/08/25 12:42:36;;;;;;;4.22;1.63;;;;;;;;;;6246700;28;20400;-75
2021/08/25 12:45:38;;;;;;;4.35;1.05;;;;;;;;;;6243655;28;20037;-75
2021/08/25 12:48:39;;;;;;;2.05;1.08;;;;;;;;;;6247697;28;20045;-75
2021/08/25 12:51:41;;;;;;;2.83;1.10;;;;;;;;;;6242060;28;20132;-74
2021/08/25 12:54:42;;;;;;;2.77;0.90;;;;;;;;;;6252161;28;20143;-74
2021/08/25 12:57:45;;;;;;;1.23;0.90;;;;;;;;;;6245837;28;20554;-75
2021/08/25 13:00:47;;;;;;;1.50;0.90;;;;;;;;;;6238545;28;20119;-75
2021/08/25 13:03:48;;;;;;;2.17;0.87;;;;;;;;;;6245663;28;20102;-75
2021/08/25 13:06:50;;;;;;;3.77;1.40;;;;;;;;;;6246152;28;20135;-75
2021/08/25 13:09:51;;;;;;;2.43;0.97;;;;;;;;;;6250863;28;20118;-75
2021/08/25 13:12:54;;;;;;;1.20;0.87;;;;;;;;;;6241736;28;20516;-75
2021/08/25 13:15:56;;;;;;;2.00;1.10;;;;;;;;;;6243005;28;20307;-75
2021/08/25 13:18:58;;;;;;;2.17;0.93;;;;;;;;;;6247150;28;20400;-75
2021/08/25 13:21:59;;;;;;;3.80;1.20;;;;;;;;;;6245493;28;20044;-76
2021/08/25 13:25:01;;;;;;;2.27;0.90;;;;;;;;;;6255909;28;21487;-77
2021/08/25 13:28:04;;;;;;;2.30;1.20;;;;;;;;;;6251613;28;20174;-76
2021/08/25 13:31:06;;;;;;;1.92;0.90;;;;;;;;;;6248443;28;20045;-77
2021/08/25 13:34:07;;;;;;;2.90;0.93;;;;;;;;;;6248910;28;20114;-77
2021/08/25 13:37:10;;;;;;;2.73;1.00;;;;;;;;;;6244774;28;20047;-75
2021/08/25 13:40:13;;;;;;;2.55;1.33;;;;;;;;;;6248824;28;20053;-77
2021/08/25 13:43:17;;;;;;;4.18;1.20;;;;;;;;;;6250619;28;20123;-77
2021/08/25 13:46:21;;;;;;;4.00;1.00;;;;;;;;;;6242944;28;20064;-77
2021/08/25 13:49:23;;;;;;;1.63;1.35;;;;;;;;;;6247185;28;20057;-77
2021/08/25 13:52:24;;;;;;;2.33;1.02;;;;;;;;;;6243145;28;20053;-77
2021/08/25 13:55:27;;;;;;;6.85;1.10;;;;;;;;;;6248553;28;20098;-76
2021/08/25 13:58:30;;;;;;;;;;;;;;;;;;6251864;28;20064;-78
2021/08/25 14:01:31;;;;;;;;;;;;;;;;;;6239435;28;19929;-77
2021/08/25 14:04:32;;;;;;;2.28;0.95;;;;;;;;;;6247939;28;20016;-76
2021/08/25 14:07:36;;;;;;;1.40;1.02;;;;;;;;;;6241827;28;20106;-77
2021/08/25 14:10:38;;;;;;;2.42;0.95;;;;;;;;;;6242598;28;20118;-77
2021/08/25 14:13:41;;;;;;;4.85;1.20;;;;;;;;;;6249644;28;20554;-77
2021/08/25 14:16:42;;;;;;;2.83;1.20;;;;;;;;;;6239699;28;20111;-75
2021/08/25 14:19:44;;;;;;;4.85;1.02;;;;;;;;;;6249451;28;20056;-78
2021/08/25 14:22:46;;;;;;;2.47;1.05;;;;;;;;;;6242970;28;20053;-77
2021/08/25 14:25:48;;;;;;;2.42;1.17;;;;;;;;;;6243575;28;20054;-79
2021/08/25 14:28:51;;;;;;;2.53;1.00;;;;;;;;;;6260590;28;20067;-76
2021/08/25 14:31:53;;;;;;;3.50;0.90;;;;;;;;;;6245650;28;20132;-75
2021/08/25 14:34:54;;;;;;;2.75;1.17;;;;;;;;;;6255895;28;20485;-76
2021/08/25 14:37:56;;;;;;;1.42;0.93;;;;;;;;;;6247206;28;20053;-76
2021/08/25 14:40:57;;;;;;;5.43;0.97;;;;;;;;;;6252288;28;20635;-76
2021/08/25 14:44:01;;;;;;;1.80;1.10;;;;;;;;;;6261010;28;20542;-75
2021/08/25 14:47:03;;;;;;;1.42;0.90;;;;;;;;;;6248197;28;20053;-77
2021/08/25 14:50:05;;;;;;;3.75;1.23;;;;;;;;;;6255424;28;20051;-76
2021/08/25 14:53:08;;;;;;;1.77;1.00;;;;;;;;;;6247825;28;20136;-76
2021/08/25 14:56:09;;;;;;;2.08;1.15;;;;;;;;;;6250166;28;20056;-76
2021/08/25 14:59:12;;;;;;;1.70;1.17;;;;;;;;;;6256838;28;20412;-75
2021/08/25 15:02:14;;;;;;;4.78;1.10;;;;;;;;;;6243020;28;20179;-77
2021/08/25 15:05:16;;;;;;;3.20;0.93;;;;;;;;;;6251970;28;20041;-76
2021/08/25 15:08:17;;;;;;;1.60;1.13;;;;;;;;;;6256672;28;20067;-76
2021/08/25 15:11:19;;;;;;;1.77;1.08;;;;;;;;;;6253190;28;20053;-77
2021/08/25 15:14:22;;;;;;;1.73;1.10;;;;;;;;;;6259493;28;20057;-76
2021/08/25 15:17:24;;;;;;;4.15;1.10;;;;;;;;;;6242328;28;21062;-76
2021/08/25 15:20:25;;;;;;;1.50;1.10;;;;;;;;;;6246772;28;21087;-76
2021/08/25 15:23:27;;;;;;;3.50;1.10;;;;;;;;;;6251726;28;20195;-77
2021/08/25 15:26:31;;;;;;;1.13;1.02;;;;;;;;;;6248566;28;20509;-77
2021/08/25 15:29:35;;;;;;;1.20;1.00;;;;;;;;;;6257342;28;20052;-76
2021/08/25 15:32:36;;;;;;;2.00;0.93;;;;;;;;;;6239342;28;20048;-77
2021/08/25 15:35:38;;;;;;;2.15;1.17;;;;;;;;;;6246911;28;20506;-75
2021/08/25 15:38:39;;;;;;;2.03;0.90;;;;;;;;;;6255657;28;20107;-77
2021/08/25 15:41:41;;;;;;;;;;;;;;;;;;6246734;28;20135;-77
2021/08/25 15:44:44;;;;;;;4.45;1.20;;;;;;;;;;6255321;28;20283;-75
2021/08/25 15:47:45;;;;;;;2.08;1.08;;;;;;;;;;6239172;28;20533;-76
2021/08/25 15:50:47;;;;;;;3.63;1.20;;;;;;;;;;6243323;28;20060;-76
2021/08/25 15:53:48;;;;;;;1.67;1.00;;;;;;;;;;6253182;28;20045;-75
2021/08/25 15:56:50;;;;;;;1.85;1.10;;;;;;;;;;6244114;28;20037;-76
2021/08/25 15:59:53;;;;;;;2.10;1.08;;;;;;;;;;6254646;28;20052;-76
2021/08/25 16:02:55;;;;;;;2.42;1.00;;;;;;;;;;6242839;28;20136;-76
2021/08/25 16:05:57;;;;;;;1.95;0.90;;;;;;;;;;6239702;28;20048;-76
2021/08/25 16:08:58;;;;;;;3.53;0.98;;;;;;;;;;6253021;28;20061;-76
2021/08/25 16:12:00;;;;;;;4.93;1.20;;;;;;;;;;6252654;28;20070;-76
2021/08/25 16:15:04;;;;;;;9.68;1.20;;;;;;;;;;6256074;28;20138;-76
2021/08/25 16:18:05;;;;;;;2.40;1.17;;;;;;;;;;6233244;28;20053;-76
2021/08/25 16:21:07;;;;;;;1.50;1.00;;;;;;;;;;6245650;28;20144;-76
2021/08/25 16:24:11;;;;;;;1.40;0.90;;;;;;;;;;6255394;28;20520;-76
2021/08/25 16:27:13;;;;;;;2.95;1.00;;;;;;;;;;6249701;28;20041;-75
2021/08/25 16:30:16;;;;;;;2.00;1.10;;;;;;;;;;6250559;28;20098;-76
2021/08/25 16:33:18;;;;;;;1.58;1.00;;;;;;;;;;6250133;28;20190;-76
2021/08/25 16:36:21;;;;;;;1.30;0.90;;;;;;;;;;6247867;28;20429;-76
2021/08/25 16:39:23;;;;;;;5.80;1.08;;;;;;;;;;6258048;28;20073;-76
2021/08/25 16:42:24;;;;;;;2.65;1.05;;;;;;;;;;6267063;28;20052;-76
2021/08/25 16:45:27;;;;;;;3.38;1.35;;;;;;;;;;6268923;28;20048;-76
2021/08/25 16:48:29;;;;;;;1.80;1.10;;;;;;;;;;6266563;28;20109;-76
2021/08/25 16:51:30;;;;;;;2.28;1.00;;;;;;;;;;6269166;28;20105;-76
2021/08/25 16:54:32;;;;;;;2.63;1.02;;;;;;;;;;6261772;28;20132;-76
2021/08/25 16:57:34;;;;;;;1.13;0.88;;;;;;;;;;6255498;28;20101;-76
2021/08/25 17:00:37;;;;;;;2.58;1.20;;;;;;;;;;6260207;28;20167;-76
2021/08/25 17:03:39;;;;;;;3.63;1.00;;;;;;;;;;6254550;28;20049;-76
2021/08/25 17:06:40;;;;;;;3.78;1.10;;;;;;;;;;6252290;28;20113;-75
2021/08/25 17:09:42;;;;;;;3.95;1.00;;;;;;;;;;6251114;28;20128;-75
2021/08/25 17:12:44;;;;;;;4.25;1.10;;;;;;;;;;6249975;28;20127;-75
2021/08/25 17:15:46;;;;;;;3.35;1.10;;;;;;;;;;6242787;28;20489;-75
2021/08/25 17:18:48;;;;;;;;;;;;;;;;;;6247595;28;20123;-75
2021/08/25 17:21:50;;;;;;;2.10;0.90;;;;;;;;;;6244471;28;19921;-75
2021/08/25 17:24:55;;;;;;;4.28;0.98;;;;;;;;;;6268767;28;20049;-75
2021/08/25 17:27:57;;;;;;;2.10;0.90;;;;;;;;;;6254744;28;20080;-75
2021/08/25 17:31:00;;;;;;;4.40;1.20;;;;;;;;;;6253412;28;20049;-74
2021/08/25 17:34:01;;;;;;;;;;;;;;;;;;6241698;28;20068;-75
2021/08/25 17:37:03;;;;;;;3.55;0.90;;;;;;;;;;6241666;28;20055;-75
2021/08/25 17:40:06;;;;;;;4.43;1.10;;;;;;;;;;6251600;28;20752;-75
2021/08/25 17:43:08;;;;;;;2.15;1.00;;;;;;;;;;6247023;28;20044;-75
2021/08/25 17:46:12;;;;;;;5.60;1.05;;;;;;;;;;6235971;28;20132;-75
2021/08/25 17:49:14;;;;;;;1.23;0.80;;;;;;;;;;6250166;28;20084;-75
2021/08/25 17:52:16;;;;;;;2.97;0.90;;;;;;;;;;6240280;28;20114;-74
2021/08/25 17:55:19;;;;;;;3.63;1.60;;;;;;;;;;6242645;28;20045;-75
2021/08/25 17:58:21;;;;;;;4.25;1.10;;;;;;;;;;6249738;28;20559;-75
2021/08/25 18:01:24;;;;;;;2.47;1.10;;;;;;;;;;6234645;28;20106;-75
2021/08/25 18:04:26;;;;;;;2.67;0.90;;;;;;;;;;6245916;28;20056;-74
2021/08/25 18:07:27;;;;;;;1.90;0.90;;;;;;;;;;6240805;28;20041;-75
2021/08/25 18:10:29;;;;;;;3.85;1.02;;;;;;;;;;6247250;28;20154;-74
2021/08/25 18:13:31;;;;;;;4.60;1.00;;;;;;;;;;6244028;28;20045;-75
2021/08/25 18:16:34;;;;;;;2.08;0.85;;;;;;;;;;6240214;28;20139;-79